createdAt,value
2022-08-02T00:00:00.762Z,1.85
2022-08-02T00:02:28.735Z,1.95
2022-08-02T00:04:56.595Z,2.00
2022-08-02T00:07:24.304Z,2.08
2022-08-02T00:09:51.899Z,1.85
2022-08-02T00:12:19.537Z,2.10
2022-08-02T00:14:47.317Z,1.87
2022-08-02T00:17:14.936Z,1.90
2022-08-02T00:19:42.755Z,1.90
2022-08-02T00:22:10.808Z,1.75
2022-08-02T00:24:38.689Z,2.10
2022-08-02T00:27:09.174Z,1.80
2022-08-02T00:29:50.517Z,1.52
2022-08-02T00:32:08.090Z,1.87
2022-08-02T00:34:37.998Z,1.90
2022-08-02T00:37:05.704Z,1.80
2022-08-02T00:39:34.017Z,2.05
2022-08-02T00:42:03.945Z,2.30
2022-08-02T00:44:31.692Z,2.00
2022-08-02T00:46:59.869Z,2.00
2022-08-02T00:49:28.128Z,2.02
2022-08-02T00:51:55.765Z,2.05
2022-08-02T00:54:23.500Z,2.10
2022-08-02T00:56:51.391Z,2.40
2022-08-02T00:59:19.266Z,2.70
2022-08-02T01:01:57.480Z,3.08
2022-08-02T01:04:16.308Z,3.25
2022-08-02T01:06:45.586Z,3.08
2022-08-02T01:09:13.440Z,2.98
2022-08-02T01:11:41.181Z,3.12
2022-08-02T01:14:12.882Z,3.27
2022-08-02T01:16:48.708Z,3.70
2022-08-02T01:19:50.019Z,4.72
2022-08-02T01:23:00.598Z,3.40
2022-08-02T01:25:17.369Z,3.52
2022-08-02T01:28:13.493Z,2.40
2022-08-02T01:30:44.575Z,2.85
2022-08-02T01:33:17.021Z,2.47
2022-08-02T01:35:50.891Z,3.17
2022-08-02T01:38:38.527Z,8.43
2022-08-02T01:41:09.985Z,15.53
2022-08-02T01:43:40.259Z,6.37
2022-08-02T01:46:11.490Z,4.60
2022-08-02T01:48:45.545Z,3.80
2022-08-02T01:51:22.916Z,3.27
2022-08-02T01:53:55.588Z,3.00
2022-08-02T01:56:29.422Z,2.30
2022-08-02T01:59:06.265Z,2.22
2022-08-02T02:01:40.600Z,2.52
2022-08-02T02:04:12.976Z,2.55
2022-08-02T02:06:47.789Z,2.40
2022-08-02T02:09:22.162Z,2.22
2022-08-02T02:12:12.002Z,2.42
2022-08-02T02:14:24.915Z,2.87
2022-08-02T02:16:55.878Z,2.42
2022-08-02T02:21:53.868Z,2.45
2022-08-02T02:24:22.307Z,2.65
2022-08-02T02:26:52.276Z,2.30
2022-08-02T02:29:24.492Z,2.42
2022-08-02T02:31:55.088Z,6.90
2022-08-02T02:34:30.168Z,10.18
2022-08-02T02:37:02.772Z,7.62
2022-08-02T02:39:32.316Z,5.17
2022-08-02T02:42:03.196Z,4.53
2022-08-02T02:44:33.113Z,4.17
2022-08-02T02:47:03.215Z,5.35
2022-08-02T02:49:35.100Z,6.28
2022-08-02T02:52:05.439Z,6.60
2022-08-02T02:54:35.368Z,4.80
2022-08-02T02:57:06.032Z,3.50
2022-08-02T02:59:35.984Z,3.90
2022-08-02T03:02:05.690Z,3.25
2022-08-02T03:04:56.339Z,4.42
2022-08-02T03:07:05.159Z,6.17
2022-08-02T03:09:32.974Z,3.10
2022-08-02T03:12:01.340Z,3.80
2022-08-02T03:14:29.113Z,5.30
2022-08-02T03:16:56.689Z,5.53
2022-08-02T03:19:24.493Z,6.55
2022-08-02T03:21:57.195Z,5.42
2022-08-02T03:24:27.647Z,3.50
2022-08-02T03:26:53.893Z,2.60
2022-08-02T03:29:21.566Z,2.60
2022-08-02T03:31:49.787Z,2.67
2022-08-02T03:34:17.661Z,3.90
2022-08-02T03:36:49.028Z,3.00
2022-08-02T03:39:19.537Z,2.90
2022-08-02T03:41:49.470Z,2.62
2022-08-02T03:44:18.063Z,2.70
2022-08-02T03:46:46.765Z,2.60
2022-08-02T03:49:17.921Z,3.15
2022-08-02T03:51:47.020Z,2.80
2022-08-02T03:54:17.218Z,3.12
2022-08-02T03:56:45.829Z,5.28
2022-08-02T03:59:15.154Z,5.08
2022-08-02T04:01:42.997Z,3.12
2022-08-02T04:04:10.852Z,2.22
2022-08-02T04:06:40.098Z,2.27
2022-08-02T04:09:08.370Z,2.55
2022-08-02T04:11:37.345Z,2.30
2022-08-02T04:14:10.417Z,2.47
2022-08-02T04:16:43.094Z,3.40
2022-08-02T04:19:18.116Z,4.23
2022-08-02T04:21:51.865Z,3.80
2022-08-02T04:24:24.558Z,3.37
2022-08-02T04:26:57.861Z,4.05
2022-08-02T04:29:27.063Z,3.30
2022-08-02T04:31:54.939Z,3.40
2022-08-02T04:34:22.557Z,3.15
2022-08-02T04:36:50.605Z,3.35
2022-08-02T04:39:19.594Z,3.52
2022-08-02T04:41:47.495Z,4.50
2022-08-02T04:44:15.296Z,4.72
2022-08-02T04:46:45.570Z,5.60
2022-08-02T04:49:13.497Z,3.40
2022-08-02T04:51:43.271Z,2.92
2022-08-02T04:54:11.608Z,3.60
2022-08-02T04:56:39.567Z,3.10
2022-08-02T04:59:07.727Z,3.10
2022-08-02T05:01:35.802Z,3.27
2022-08-02T05:04:03.902Z,4.37
2022-08-02T05:06:32.572Z,3.45
2022-08-02T05:09:00.269Z,3.70
2022-08-02T05:11:34.458Z,3.30
2022-08-02T05:13:58.979Z,3.27
2022-08-02T05:16:30.739Z,2.92
2022-08-02T05:18:57.129Z,3.37
2022-08-02T05:21:25.282Z,3.55
2022-08-02T05:23:53.004Z,3.25
2022-08-02T05:26:20.904Z,3.00
2022-08-02T05:28:48.708Z,3.70
2022-08-02T05:31:16.507Z,3.30
2022-08-02T05:33:43.990Z,3.22
2022-08-02T05:36:11.615Z,3.00
2022-08-02T05:38:39.121Z,3.02
2022-08-02T05:41:06.880Z,3.20
2022-08-02T05:43:34.509Z,3.12
2022-08-02T05:46:02.356Z,2.80
2022-08-02T05:48:32.140Z,3.20
2022-08-02T05:51:06.575Z,3.35
2022-08-02T05:53:48.541Z,3.27
2022-08-02T05:56:32.441Z,3.22
2022-08-02T05:59:36.818Z,3.58
2022-08-02T06:02:22.163Z,3.70
2022-08-02T06:05:01.098Z,3.95
2022-08-02T06:07:30.900Z,3.65
2022-08-02T06:10:00.229Z,3.50
2022-08-02T06:12:32.294Z,3.67
2022-08-02T06:15:03.569Z,3.25
2022-08-02T06:17:32.799Z,3.65
2022-08-02T06:20:01.315Z,3.50
2022-08-02T06:22:37.196Z,3.45
2022-08-02T06:25:02.471Z,3.20
2022-08-02T06:27:30.864Z,3.15
2022-08-02T06:29:58.557Z,3.22
2022-08-02T06:32:27.554Z,3.35
2022-08-02T06:34:55.156Z,3.37
2022-08-02T06:37:46.667Z,3.72
2022-08-02T06:40:28.791Z,3.30
2022-08-02T06:43:10.893Z,3.30
2022-08-02T06:45:39.282Z,3.15
2022-08-02T06:48:07.987Z,3.62
2022-08-02T06:50:38.614Z,4.28
2022-08-02T06:53:08.049Z,3.17
2022-08-02T06:55:43.332Z,3.25
2022-08-02T06:58:05.749Z,3.25
2022-08-02T07:00:33.519Z,3.50
2022-08-02T07:03:02.271Z,3.37
2022-08-02T07:05:29.882Z,2.42
2022-08-02T07:07:57.601Z,2.62
2022-08-02T07:10:25.246Z,3.15
2022-08-02T07:12:53.033Z,2.30
2022-08-02T07:15:20.917Z,2.60
2022-08-02T07:17:48.779Z,2.30
2022-08-02T07:20:16.589Z,2.10
2022-08-02T07:22:44.080Z,3.05
2022-08-02T07:25:11.900Z,2.25
2022-08-02T07:27:39.541Z,2.22
2022-08-02T07:30:09.173Z,2.37
2022-08-02T07:32:36.973Z,2.60
2022-08-02T07:35:07.590Z,2.72
2022-08-02T07:37:55.293Z,2.58
2022-08-02T07:40:14.867Z,2.58
2022-08-02T07:42:43.797Z,2.40
2022-08-02T07:45:13.073Z,2.60
2022-08-02T07:47:43.393Z,2.30
2022-08-02T07:50:13.044Z,2.70
2022-08-02T07:52:42.046Z,2.52
2022-08-02T07:55:11.695Z,2.70
2022-08-02T07:57:45.890Z,2.50
2022-08-02T08:00:11.336Z,2.33
2022-08-02T08:02:41.971Z,2.05
2022-08-02T08:05:09.789Z,2.40
2022-08-02T08:07:37.473Z,2.35
2022-08-02T08:10:07.531Z,2.37
2022-08-02T08:12:35.561Z,2.20
2022-08-02T08:15:04.452Z,2.60
2022-08-02T08:17:32.346Z,2.10
2022-08-02T08:20:01.561Z,2.20
2022-08-02T08:22:29.149Z,2.10
2022-08-02T08:24:56.847Z,2.02
2022-08-02T08:27:25.401Z,2.20
2022-08-02T08:29:53.260Z,2.37
2022-08-02T08:32:21.657Z,2.15
2022-08-02T08:34:50.761Z,2.15
2022-08-02T08:37:19.043Z,2.10
2022-08-02T08:39:57.389Z,1.67
2022-08-02T08:42:16.814Z,1.95
2022-08-02T08:44:46.229Z,1.90
2022-08-02T08:47:14.545Z,2.00
2022-08-02T08:49:52.357Z,2.00
2022-08-02T08:52:16.174Z,2.00
2022-08-02T08:54:44.871Z,2.42
2022-08-02T08:57:17.631Z,1.72
2022-08-02T08:59:46.310Z,1.82
2022-08-02T09:02:20.404Z,1.85
2022-08-02T09:04:55.138Z,1.60
2022-08-02T09:07:13.779Z,1.90
2022-08-02T09:09:43.073Z,1.60
2022-08-02T09:12:21.350Z,1.70
2022-08-02T09:14:50.185Z,1.72
2022-08-02T09:17:18.520Z,1.80
2022-08-02T09:19:47.909Z,2.30
2022-08-02T09:22:16.467Z,1.80
2022-08-02T09:24:48.739Z,1.85
2022-08-02T09:27:20.949Z,1.85
2022-08-02T09:30:11.538Z,1.40
2022-08-02T09:34:53.737Z,1.20
2022-08-02T09:37:27.607Z,1.35
2022-08-02T09:39:59.904Z,1.30
2022-08-02T09:42:30.624Z,1.62
2022-08-02T09:45:02.593Z,1.72
2022-08-02T09:47:31.254Z,1.47
2022-08-02T09:49:59.027Z,1.40
2022-08-02T09:52:36.894Z,1.40
2022-08-02T09:55:05.919Z,1.77
2022-08-02T09:57:35.535Z,1.50
2022-08-02T10:00:16.139Z,1.40
2022-08-02T10:02:41.424Z,1.42
2022-08-02T10:05:11.702Z,1.40
2022-08-02T10:07:41.287Z,1.40
2022-08-02T10:10:10.116Z,1.42
2022-08-02T10:12:37.909Z,1.40
2022-08-02T10:15:07.398Z,1.30
2022-08-02T10:17:36.301Z,1.55
2022-08-02T10:20:05.527Z,1.40
2022-08-02T10:22:34.388Z,1.50
2022-08-02T10:25:04.718Z,1.30
2022-08-02T10:27:49.193Z,1.27
2022-08-02T10:30:03.854Z,1.35
2022-08-02T10:32:39.488Z,1.40
2022-08-02T10:35:20.123Z,1.22
2022-08-02T10:37:44.271Z,1.60
2022-08-02T10:40:28.087Z,1.40
2022-08-02T10:43:00.953Z,1.40
2022-08-02T10:45:29.793Z,1.22
2022-08-02T10:48:09.943Z,1.10
2022-08-02T10:50:52.627Z,1.40
2022-08-02T10:53:33.215Z,1.52
2022-08-02T10:56:05.621Z,1.22
2022-08-02T10:58:35.400Z,1.37
2022-08-02T11:01:38.518Z,1.87
2022-08-02T11:04:00.435Z,1.40
2022-08-02T11:06:28.121Z,1.40
2022-08-02T11:09:33.443Z,2.05
2022-08-02T11:14:35.060Z,1.32
2022-08-02T11:17:17.859Z,1.22
2022-08-02T11:20:15.598Z,1.40
2022-08-02T11:22:46.050Z,1.50
2022-08-02T11:25:42.987Z,1.60
2022-08-02T11:28:09.728Z,1.40
2022-08-02T11:30:38.802Z,1.37
2022-08-02T11:33:06.962Z,1.42
2022-08-02T11:35:39.193Z,1.22
2022-08-02T11:38:19.706Z,1.45
2022-08-02T11:40:48.990Z,1.10
2022-08-02T11:43:22.523Z,1.10
2022-08-02T11:45:51.978Z,1.20
2022-08-02T11:48:38.137Z,1.27
2022-08-02T11:51:14.768Z,1.20
2022-08-02T11:53:57.949Z,1.32
2022-08-02T11:56:32.213Z,1.25
2022-08-02T11:59:08.994Z,1.27
2022-08-02T12:01:46.271Z,1.40
2022-08-02T12:04:09.033Z,5.85
2022-08-02T12:06:37.575Z,29.70
2022-08-02T12:09:18.874Z,3.65
2022-08-02T12:11:42.845Z,3.05
2022-08-02T12:14:10.596Z,6.08
2022-08-02T12:16:58.379Z,1.57
2022-08-02T12:19:27.385Z,2.05
2022-08-02T12:22:24.521Z,1.30
2022-08-02T12:24:55.534Z,1.20
2022-08-02T12:27:40.352Z,1.33
2022-08-02T12:30:27.630Z,0.95
2022-08-02T12:32:48.003Z,1.32
2022-08-02T12:35:26.614Z,1.40
2022-08-02T12:37:52.082Z,1.32
2022-08-02T12:40:32.858Z,1.25
2022-08-02T12:43:11.072Z,1.22
2022-08-02T12:45:52.585Z,1.30
2022-08-02T12:48:37.827Z,1.30
2022-08-02T12:51:51.163Z,1.40
2022-08-02T12:54:20.317Z,0.95
2022-08-02T12:56:50.768Z,1.20
2022-08-02T12:59:38.623Z,1.30
2022-08-02T13:02:12.657Z,1.00
2022-08-02T13:04:50.021Z,1.57
2022-08-02T13:07:12.272Z,1.20
2022-08-02T13:09:44.357Z,1.50
2022-08-02T13:12:12.356Z,1.30
2022-08-02T13:14:42.660Z,1.05
2022-08-02T13:17:11.669Z,1.20
2022-08-02T13:19:40.477Z,1.17
2022-08-02T13:22:11.365Z,1.20
2022-08-02T13:24:55.179Z,1.20
2022-08-02T13:27:09.200Z,1.12
2022-08-02T13:29:38.503Z,1.55
2022-08-02T13:32:06.413Z,1.20
2022-08-02T13:34:34.614Z,1.32
2022-08-02T13:37:03.417Z,1.10
2022-08-02T13:39:34.317Z,1.40
2022-08-02T13:42:02.023Z,1.30
2022-08-02T13:44:29.791Z,1.22
2022-08-02T13:46:57.929Z,1.37
2022-08-02T13:49:51.162Z,1.30
2022-08-02T13:51:55.032Z,1.10
2022-08-02T13:54:22.802Z,1.10
2022-08-02T13:56:50.415Z,1.30
2022-08-02T13:59:54.355Z,1.60
2022-08-02T14:01:48.066Z,1.20
2022-08-02T14:04:15.685Z,1.10
2022-08-02T14:06:43.753Z,1.22
2022-08-02T14:09:15.622Z,1.32
2022-08-02T14:11:41.078Z,1.10
2022-08-02T14:14:10.856Z,1.25
2022-08-02T14:16:40.144Z,1.07
2022-08-02T14:19:15.941Z,1.00
2022-08-02T14:21:46.271Z,1.30
2022-08-02T14:24:08.181Z,1.20
2022-08-02T14:26:36.089Z,1.02
2022-08-02T14:29:04.611Z,1.17
2022-08-02T14:31:32.432Z,1.12
2022-08-02T14:34:00.212Z,1.10
2022-08-02T14:36:28.428Z,1.00
2022-08-02T14:38:56.433Z,1.45
2022-08-02T14:41:24.423Z,1.15
2022-08-02T14:44:04.486Z,1.15
2022-08-02T14:46:35.709Z,1.20
2022-08-02T14:49:04.660Z,1.00
2022-08-02T14:51:32.334Z,1.20
2022-08-02T14:54:02.861Z,1.00
2022-08-02T14:56:31.281Z,1.02
2022-08-02T14:58:59.396Z,1.00
2022-08-02T15:01:27.172Z,0.90
2022-08-02T15:03:55.075Z,1.00
2022-08-02T15:06:23.293Z,1.30
2022-08-02T15:08:51.026Z,1.10
2022-08-02T15:11:18.914Z,1.20
2022-08-02T15:13:46.616Z,1.10
2022-08-02T15:16:14.848Z,1.10
2022-08-02T15:18:42.616Z,1.00
2022-08-02T15:21:30.049Z,1.10
2022-08-02T15:23:40.299Z,1.20
2022-08-02T15:26:08.055Z,1.10
2022-08-02T15:28:35.800Z,1.10
2022-08-02T15:31:03.912Z,1.22
2022-08-02T15:33:31.653Z,1.40
2022-08-02T15:35:59.528Z,1.30
2022-08-02T15:38:27.323Z,1.17
2022-08-02T15:40:55.168Z,1.10
2022-08-02T15:43:22.928Z,1.05
2022-08-02T15:45:50.525Z,1.15
2022-08-02T15:48:18.187Z,1.30
2022-08-02T15:50:46.046Z,1.20
2022-08-02T15:53:13.691Z,1.02
2022-08-02T15:55:52.787Z,1.62
2022-08-02T15:58:17.032Z,1.65
2022-08-02T16:00:40.507Z,2.30
2022-08-02T16:03:07.994Z,1.30
2022-08-02T16:05:35.789Z,1.17
2022-08-02T16:08:03.579Z,1.35
2022-08-02T16:10:31.241Z,1.30
2022-08-02T16:13:00.739Z,1.15
2022-08-02T16:15:28.611Z,1.30
2022-08-02T16:17:56.341Z,0.95
2022-08-02T16:20:24.142Z,1.42
2022-08-02T16:22:51.637Z,1.10
2022-08-02T16:25:19.243Z,1.02
2022-08-02T16:28:05.928Z,1.10
2022-08-02T16:30:16.354Z,1.10
2022-08-02T16:32:44.182Z,1.25
2022-08-02T16:35:11.881Z,1.15
2022-08-02T16:37:50.372Z,1.10
2022-08-02T16:40:11.672Z,1.12
2022-08-02T16:42:39.668Z,1.22
2022-08-02T16:45:09.886Z,1.20
2022-08-02T16:47:43.699Z,1.27
2022-08-02T16:50:10.266Z,1.40
2022-08-02T16:52:38.910Z,1.15
2022-08-02T16:55:10.246Z,1.20
2022-08-02T16:57:45.386Z,1.40
2022-08-02T17:00:15.552Z,1.20
2022-08-02T17:02:43.934Z,1.40
2022-08-02T17:08:08.203Z,1.45
2022-08-02T17:10:12.232Z,1.42
2022-08-02T17:12:40.468Z,1.80
2022-08-02T17:17:42.054Z,1.70
2022-08-02T17:20:09.325Z,2.02
2022-08-02T17:22:37.161Z,1.90
2022-08-02T17:25:05.933Z,2.00
2022-08-02T17:27:35.423Z,2.20
2022-08-02T17:30:04.429Z,2.20
2022-08-02T17:32:33.694Z,2.85
2022-08-02T17:35:04.549Z,2.80
2022-08-02T17:37:32.777Z,2.67
2022-08-02T17:40:03.646Z,2.42
2022-08-02T17:42:32.373Z,2.58
2022-08-02T17:45:06.979Z,2.50
2022-08-02T17:47:30.580Z,2.67
2022-08-02T17:49:59.189Z,2.98
2022-08-02T17:52:51.363Z,5.72
2022-08-02T17:54:57.380Z,4.70
2022-08-02T17:57:25.129Z,4.65
2022-08-02T18:00:04.271Z,4.72
2022-08-02T18:02:31.564Z,3.70
2022-08-02T18:04:59.264Z,3.80
2022-08-02T18:07:27.190Z,3.35
2022-08-02T18:09:56.863Z,3.40
2022-08-02T18:12:26.844Z,8.75
2022-08-02T18:14:55.565Z,13.18
2022-08-02T18:17:23.087Z,12.23
2022-08-02T18:19:55.391Z,7.33
2022-08-02T18:22:24.921Z,5.30
2022-08-02T18:24:51.774Z,8.10
2022-08-02T18:27:19.409Z,5.05
2022-08-02T18:29:48.299Z,6.03
2022-08-02T18:32:17.694Z,6.12
2022-08-02T18:34:47.788Z,6.15
2022-08-02T18:37:15.607Z,5.87
2022-08-02T18:39:51.325Z,6.75
2022-08-02T18:42:17.669Z,6.55
2022-08-02T18:44:44.986Z,5.17
2022-08-02T18:47:12.770Z,5.97
2022-08-02T18:49:47.299Z,4.47
2022-08-02T18:52:10.975Z,4.30
2022-08-02T18:54:39.024Z,6.30
2022-08-02T18:57:59.659Z,4.30
2022-08-02T18:59:37.679Z,4.30
2022-08-02T19:02:05.410Z,4.12
2022-08-02T19:04:33.823Z,3.20
2022-08-02T19:07:07.577Z,2.27
2022-08-02T19:09:31.212Z,2.77
2022-08-02T19:11:58.823Z,2.70
2022-08-02T19:14:28.457Z,3.00
2022-08-02T19:16:58.886Z,3.35
2022-08-02T19:19:29.151Z,2.98
2022-08-02T19:22:18.295Z,2.95
2022-08-02T19:24:28.154Z,3.25
2022-08-02T19:26:57.343Z,2.85
2022-08-02T19:29:42.160Z,3.10
2022-08-02T19:32:00.019Z,3.15
2022-08-02T19:34:25.119Z,3.52
2022-08-02T19:36:53.688Z,7.78
2022-08-02T19:39:21.507Z,5.95
2022-08-02T19:41:51.969Z,3.30
2022-08-02T19:44:24.372Z,3.58
2022-08-02T19:46:49.653Z,3.37
2022-08-02T19:49:19.909Z,3.20
2022-08-02T19:51:54.581Z,2.70
2022-08-02T19:54:20.294Z,2.70
2022-08-02T19:56:48.162Z,2.15
2022-08-02T19:59:16.155Z,2.20
2022-08-02T20:01:48.717Z,2.12
2022-08-02T20:04:14.179Z,2.00
2022-08-02T20:09:21.330Z,1.95
2022-08-02T20:11:54.407Z,1.77
2022-08-02T20:14:19.407Z,1.85
2022-08-02T20:16:49.085Z,1.98
2022-08-02T20:19:17.871Z,2.10
2022-08-02T20:21:54.130Z,2.10
2022-08-02T20:24:16.886Z,2.10
2022-08-02T20:26:47.699Z,2.00
2022-08-02T20:29:14.043Z,1.98
2022-08-02T20:31:41.647Z,1.80
2022-08-02T20:34:10.633Z,1.87
2022-08-02T20:36:38.255Z,2.00
2022-08-02T20:39:06.251Z,2.00
2022-08-02T20:41:37.238Z,1.90
2022-08-02T20:44:06.345Z,2.02
2022-08-02T20:46:35.978Z,1.75
2022-08-02T20:49:07.437Z,1.80
2022-08-02T20:51:33.992Z,1.87
2022-08-02T20:54:02.485Z,1.87
2022-08-02T20:56:30.493Z,1.95
2022-08-02T20:59:03.790Z,1.87
2022-08-02T21:01:36.772Z,1.47
2022-08-02T21:03:59.301Z,1.95
2022-08-02T21:06:28.211Z,1.80
2022-08-02T21:08:58.751Z,1.90
2022-08-02T21:11:33.721Z,2.05
2022-08-02T21:14:07.444Z,1.80
2022-08-02T21:16:25.641Z,1.65
2022-08-02T21:18:55.555Z,2.12
2022-08-02T21:21:25.321Z,1.62
2022-08-02T21:23:55.216Z,1.50
2022-08-02T21:28:54.059Z,1.50
2022-08-02T21:31:21.929Z,1.77
2022-08-02T21:33:58.580Z,1.70
2022-08-02T21:36:19.111Z,2.50
2022-08-02T21:38:46.664Z,2.17
2022-08-02T21:41:16.770Z,1.95
2022-08-02T21:43:46.135Z,1.67
2022-08-02T21:46:14.616Z,1.70
2022-08-02T21:48:42.498Z,1.70
2022-08-02T21:51:15.674Z,1.87
2022-08-02T21:53:42.955Z,1.72
2022-08-02T21:56:10.977Z,1.72
2022-08-02T21:58:38.616Z,1.47
2022-08-02T22:01:06.387Z,1.60
2022-08-02T22:03:34.134Z,1.57
2022-08-02T22:06:04.675Z,1.65
2022-08-02T22:08:32.391Z,1.75
2022-08-02T22:13:38.853Z,1.82
2022-08-02T22:16:05.930Z,1.80
2022-08-02T22:18:34.016Z,1.87
2022-08-02T22:21:01.462Z,1.85
2022-08-02T22:23:38.763Z,1.60
2022-08-02T22:25:58.889Z,1.60
2022-08-02T22:28:38.855Z,1.82
2022-08-02T22:30:56.875Z,1.45
2022-08-02T22:33:47.061Z,1.30
2022-08-02T22:36:14.267Z,1.57
2022-08-02T22:38:44.899Z,1.70
2022-08-02T22:41:15.919Z,1.95
2022-08-02T22:43:44.000Z,1.80
2022-08-02T22:46:15.682Z,1.70
2022-08-02T22:48:41.303Z,1.60
2022-08-02T22:51:11.615Z,1.67
2022-08-02T22:53:45.465Z,1.45
2022-08-02T22:56:15.399Z,1.77
2022-08-02T22:58:48.780Z,1.42
2022-08-02T22:58:51.031Z,1.50
2022-08-02T22:59:02.660Z,1.30
2022-08-02T22:59:05.696Z,2.00
2022-08-02T23:01:12.558Z,1.40
2022-08-02T23:03:40.548Z,1.50
2022-08-02T23:06:09.633Z,1.42
2022-08-02T23:08:37.563Z,1.70
2022-08-02T23:11:07.171Z,1.67
2022-08-02T23:13:35.153Z,1.67
2022-08-02T23:16:21.102Z,1.55
2022-08-02T23:19:06.960Z,1.77
2022-08-02T23:22:01.629Z,1.70
2022-08-02T23:24:04.589Z,1.47
2022-08-02T23:26:32.465Z,1.62
2022-08-02T23:29:01.075Z,1.70
2022-08-02T23:31:38.289Z,1.60
2022-08-02T23:34:06.190Z,1.42
2022-08-02T23:36:34.162Z,1.40
2022-08-02T23:39:01.845Z,1.80
2022-08-02T23:41:29.629Z,1.57
2022-08-02T23:44:12.926Z,1.37
2022-08-02T23:46:26.996Z,1.80
2022-08-02T23:48:54.808Z,1.95
2022-08-02T23:51:22.552Z,1.92
2022-08-02T23:53:50.525Z,1.90
2022-08-02T23:56:18.085Z,1.90
2022-08-02T23:58:45.821Z,1.80
